Terminal Aerodrome Forecast
Issued by NWS Grand Forks, ND

Home | Current Version | Previous Version | Graphics & Text | Print | Product List | Glossary On
Versions: 1 2 3 4 5 6 7 8 9 10 11 12 13
000
FTUS43 KFGF 211700
TAFGFK
TAF
KGFK 211716Z 2118/2218 16024G33KT P6SM SKC
     FM220000 16019G26KT P6SM SKC
     FM221500 16018G28KT P6SM OVC080=

USA.gov is the U.S. government's official web portal to all federal, state and local government web resources and services.